Kirsten H — WY7979 — position and weather

sailwx.info

Track history (hours):
 
Tides and Currents Weather Stations Pressure Air Temp Water Temp Dewpoint Dewpoint Depression Visibility Wind Speed Wind Dir Waves Ship Positions

Kirsten H

Owner: BOYER TOWING, KETCHIKAN, AK. More information available from US FCC via Universal Licensing System and Coast Guard Vessel Documentation Center.

Last reported at 2017-Nov-19 01:51 UTC. Time now 2017-Nov-22 09:19 UTC.
Position N 54°33' W 130°31'.

Length 22 m; draft 3.7 m.

Type: Tug. MMSI: 366623050.

Date/timePositionNaut miles runAvg speedWind from/ knotsBaromVisibWave heightAir tempDewpointWater temp
2017-Nov-19 01:51N 54°33' W 130°31'2 5.7
2017-Nov-19 01:29N 54°31' W 130°32'3 5.4
2017-Nov-19 00:55N 54°28' W 130°34'2 6.0
2017-Nov-19 00:30N 54°26' W 130°36'3 5.1
2017-Nov-18 23:59N 54°24' W 130°38'2 5.2
2017-Nov-18 23:30N 54°22' W 130°37'3 5.3
2017-Nov-18 23:00N 54°19' W 130°36'3 5.3
2017-Nov-18 22:30N 54°17' W 130°34'3 6.0
2017-Nov-18 22:00N 54°14' W 130°31'3 6.2
2017-Nov-18 21:30N 54°12' W 130°28'3 5.8
2017-Nov-18 21:00N 54°09' W 130°25'3 5.6
2017-Nov-18 20:30N 54°07' W 130°23'3 5.6
2017-Nov-18 20:00N 54°05' W 130°19'3 6.1
2017-Nov-18 19:30N 54°03' W 130°15'4 7.0
2017-Nov-18 19:00N 53°60' W 130°13'4 7.7
2017-Nov-18 18:30N 53°56' W 130°12'3 7.0
2017-Nov-18 18:00N 53°54' W 130°06'4 7.8
2017-Nov-18 17:30N 53°51' W 130°02'4 7.7
2017-Nov-18 16:58N 53°48' W 129°58'158 6.8
2017-Nov-17 17:46N 51°30' W 127°51'11 9.2
2017-Nov-17 16:32N 51°19' W 127°52'3 9.2
2017-Nov-17 16:13N 51°16' W 127°52'2 8.9
2017-Nov-17 16:00N 51°14' W 127°52'5 9.3
2017-Nov-17 15:30N 51°10' W 127°50'4 8.7
2017-Nov-17 15:00N 51°06' W 127°45'5 9.2
2017-Nov-17 14:30N 51°03' W 127°40'4 8.9
2017-Nov-17 14:00N 50°60' W 127°36'5 9.1
2017-Nov-17 13:30N 50°58' W 127°29'5 9.6
2017-Nov-17 13:00N 50°54' W 127°24'5 9.3
2017-Nov-17 12:30N 50°51' W 127°18'5 9.4
2017-Nov-17 12:00N 50°48' W 127°13'5 9.1
2017-Nov-17 11:30N 50°45' W 127°07'10 8.8
2017-Nov-17 10:22N 50°41' W 126°53'47 6.4
2017-Nov-17 02:56N 50°22' W 125°45'1210.9
2017-Nov-17 01:50N 50°20' W 125°26'410.5
2017-Nov-17 01:28N 50°17' W 125°24'510.1
2017-Nov-17 01:00N 50°12' W 125°22'510.0
2017-Nov-17 00:30N 50°07' W 125°20'5 9.9
2017-Nov-17 00:00N 50°04' W 125°15'4 8.5
2017-Nov-16 23:30N 49°60' W 125°12'4 8.9
2017-Nov-16 23:00N 49°57' W 125°07'4 8.9
2017-Nov-16 22:30N 49°54' W 125°02'4 8.6
2017-Nov-16 21:59N 49°51' W 124°56'4 9.2
2017-Nov-16 21:30N 49°49' W 124°51'5 9.1
2017-Nov-16 21:00N 49°46' W 124°45'4 8.9
2017-Nov-16 20:30N 49°43' W 124°40'5 8.8
2017-Nov-16 19:58N 49°39' W 124°35'39 8.9
2017-Nov-16 15:34N 49°19' W 123°44'1 8.8
2017-Nov-16 15:26N 49°18' W 123°43'5 9.7
2017-Nov-16 14:52N 49°14' W 123°37'4 8.8
2017-Nov-16 14:24N 49°11' W 123°32'4 8.5
2017-Nov-16 13:58N 49°09' W 123°28'5 9.2
2017-Nov-16 13:24N 49°05' W 123°22'5 9.5
2017-Nov-16 12:50N 49°01' W 123°16'5 8.8
2017-Nov-16 12:18N 48°58' W 123°11'3 8.6
2017-Nov-16 11:59N 48°57' W 123°08'6 9.2
2017-Nov-16 11:19N 48°52' W 123°01'12 9.5
2017-Nov-16 10:05N 48°46' W 122°46'1 9.8
2017-Nov-16 09:59N 48°45' W 122°45'510.1
2017-Nov-16 09:30N 48°41' W 122°42'510.4
2017-Nov-16 09:00N 48°36' W 122°45'611.0
2017-Nov-16 08:30N 48°30' W 122°44'5 9.6
2017-Nov-16 08:00N 48°25' W 122°44'5 8.5
2017-Nov-16 07:22N 48°20' W 122°45'20 8.2
2017-Nov-16 04:54N 48°01' W 122°37'410.2
2017-Nov-16 04:29N 47°57' W 122°33'5 9.6
2017-Nov-16 04:00N 47°54' W 122°28'5 9.8
2017-Nov-16 03:30N 47°49' W 122°27'5 9.5
2017-Nov-16 03:00N 47°44' W 122°26'5 9.8
2017-Nov-16 02:30N 47°40' W 122°27'4 8.7
2017-Nov-16 02:00N 47°36' W 122°23'1 1.9
2017-Nov-16 01:30N 47°35' W 122°22'2 3.2
2017-Nov-16 01:00N 47°34' W 122°21'2 3.4
2017-Nov-16 00:26N 47°32' W 122°20'0 0.1
2017-Nov-16 00:00N 47°32' W 122°20'0 0.0
2017-Nov-15 00:24N 47°32' W 122°20'1 2.6
2017-Nov-15 00:00N 47°33' W 122°20'4 7.5
2017-Nov-14 23:31N 47°36' W 122°23'4 8.3
2017-Nov-14 23:01N 47°40' W 122°26'2 3.7
2017-Nov-14 22:30N 47°40' W 122°23'0 0.1
2017-Nov-14 22:00N 47°40' W 122°23'0 0.0
2017-Nov-14 21:31N 47°40' W 122°23'0 0.0
2017-Nov-14 21:01N 47°40' W 122°23'0 0.0
2017-Nov-14 20:31N 47°40' W 122°23'0 0.0
2017-Nov-14 20:01N 47°40' W 122°23'0 0.0
2017-Nov-14 19:30N 47°40' W 122°23'0 0.0
2017-Nov-14 19:01N 47°40' W 122°23'0 0.0
2017-Nov-14 18:31N 47°40' W 122°23'0 0.8
2017-Nov-14 18:00N 47°40' W 122°24'2 4.2
2017-Nov-14 17:31N 47°39' W 122°27'510.3
2017-Nov-14 17:01N 47°34' W 122°30'5 8.0
2017-Nov-14 16:21N 47°33' W 122°38'1 0.6
2017-Nov-14 15:01N 47°33' W 122°39'3 4.2
2017-Nov-14 14:25N 47°34' W 122°36'1 3.2
2017-Nov-14 14:00N 47°35' W 122°35'2 4.0
2017-Nov-14 13:31N 47°34' W 122°32'3 5.9
2017-Nov-14 13:01N 47°36' W 122°28'3 6.0
2017-Nov-14 12:31N 47°39' W 122°28'3 5.1
2017-Nov-14 12:01N 47°41' W 122°28'3 6.3
2017-Nov-14 11:31N 47°44' W 122°27'3 6.2
2017-Nov-14 11:01N 47°47' W 122°27'3 6.4
2017-Nov-14 10:30N 47°51' W 122°29'4 7.6
2017-Nov-14 10:00N 47°54' W 122°30'3 6.7
2017-Nov-14 09:31N 47°57' W 122°34'26 7.8
2017-Nov-14 06:09N 48°21' W 122°46'1 8.2
2017-Nov-14 06:00N 48°23' W 122°46'4 8.8
2017-Nov-14 05:30N 48°27' W 122°45'5 9.3
2017-Nov-14 05:01N 48°32' W 122°45'5 9.1
2017-Nov-14 04:30N 48°36' W 122°45'4 7.3
2017-Nov-14 03:59N 48°40' W 122°44'3 6.6
2017-Nov-14 03:30N 48°43' W 122°45'11 7.3
2017-Nov-14 01:56N 48°49' W 122°59'3 6.2
2017-Nov-14 01:29N 48°51' W 123°03'5 5.2
2017-Nov-14 00:35N 48°54' W 123°09'0 4.3
2017-Nov-14 00:30N 48°54' W 123°09'2 3.6
2017-Nov-13 23:57N 48°55' W 123°11'2 3.1
2017-Nov-13 23:21N 48°56' W 123°13'1 3.2
2017-Nov-13 23:00N 48°57' W 123°15'43 1.5
2017-Nov-12 18:32N 49°20' W 124°11'0 6.8
2017-Nov-12 18:29N 49°20' W 124°11'3 6.1
2017-Nov-12 17:58N 49°22' W 124°15'4 5.5
2017-Nov-12 17:16N 49°24' W 124°20'10 5.7
2017-Nov-12 15:29N 49°31' W 124°32'3 6.5
2017-Nov-12 15:00N 49°33' W 124°35'3 6.4
2017-Nov-12 14:30N 49°36' W 124°38'3 6.1
2017-Nov-12 14:00N 49°38' W 124°41'3 5.2
2017-Nov-12 13:30N 49°40' W 124°44'2 4.3
2017-Nov-12 13:01N 49°42' W 124°46'2 4.5
2017-Nov-12 12:30N 49°43' W 124°48'2 4.6
2017-Nov-12 12:00N 49°45' W 124°51'2 4.4
2017-Nov-12 11:31N 49°46' W 124°53'2 3.8
2017-Nov-12 11:01N 49°48' W 124°55'2 3.9
2017-Nov-12 10:30N 49°49' W 124°57'2 3.8
2017-Nov-12 10:01N 49°51' W 124°59'2 3.6
2017-Nov-12 09:29N 49°52' W 125°01'2 3.6
2017-Nov-12 09:00N 49°54' W 125°02'2 3.2
2017-Nov-12 08:30N 49°55' W 125°04'2 3.4
2017-Nov-12 08:00N 49°56' W 125°06'2 3.9
2017-Nov-12 07:27N 49°58' W 125°08'2 4.4
2017-Nov-12 06:59N 49°59' W 125°11'3 5.7
2017-Nov-12 06:30N 50°01' W 125°13'3 5.7
2017-Nov-12 06:00N 50°04' W 125°15'3 6.2
2017-Nov-12 05:31N 50°06' W 125°18'4 8.3
2017-Nov-12 05:01N 50°09' W 125°22'2 4.5
2017-Nov-12 04:31N 50°12' W 125°22'2 3.2
2017-Nov-12 04:00N 50°13' W 125°23'2 4.4
2017-Nov-12 03:30N 50°15' W 125°24'2 3.6
2017-Nov-12 02:58N 50°17' W 125°24'1 2.7
2017-Nov-12 02:30N 50°18' W 125°25'2 3.5
2017-Nov-12 02:00N 50°20' W 125°25'14 4.9
2017-Nov-11 23:10N 50°22' W 125°47'28 4.8
2017-Nov-11 17:20N 50°29' W 126°29'3 6.3
2017-Nov-11 16:56N 50°30' W 126°33'4 6.1
2017-Nov-11 16:12N 50°32' W 126°39'2 6.2
2017-Nov-11 15:56N 50°33' W 126°41'4 7.5
2017-Nov-11 15:25N 50°36' W 126°44'3 6.7
2017-Nov-11 14:58N 50°38' W 126°48'4 7.2
2017-Nov-11 14:23N 50°41' W 126°53'4 6.3
2017-Nov-11 13:44N 50°43' W 126°59'3 6.6
2017-Nov-11 13:19N 50°44' W 127°03'3 6.6
2017-Nov-11 12:54N 50°45' W 127°07'3 6.5
2017-Nov-11 12:29N 50°47' W 127°10'3 6.5
2017-Nov-11 12:00N 50°49' W 127°14'3 6.7
2017-Nov-11 11:30N 50°51' W 127°18'3 6.8
2017-Nov-11 11:00N 50°53' W 127°22'4 7.3
2017-Nov-11 10:30N 50°56' W 127°26'3 6.9
2017-Nov-11 10:00N 50°58' W 127°30'3 6.7
2017-Nov-11 09:30N 50°59' W 127°35'3 6.2
2017-Nov-11 08:59N 51°02' W 127°38'3 6.3
2017-Nov-11 08:30N 51°04' W 127°42'3 5.9
2017-Nov-11 07:59N 51°06' W 127°45'3 6.0
2017-Nov-11 07:30N 51°08' W 127°49'3 6.0
2017-Nov-11 07:00N 51°11' W 127°50'3 6.2
2017-Nov-11 06:29N 51°14' W 127°51'3 6.7
2017-Nov-11 05:58N 51°17' W 127°52'7 7.4
2017-Nov-11 05:00N 51°24' W 127°52'4 7.8
2017-Nov-11 04:28N 51°29' W 127°52'4 7.7
2017-Nov-11 04:01N 51°32' W 127°52'4 7.7
2017-Nov-11 03:30N 51°36' W 127°53'4 7.5
2017-Nov-11 03:00N 51°40' W 127°54'4 7.3
2017-Nov-11 02:30N 51°43' W 127°55'4 7.5
2017-Nov-11 02:00N 51°47' W 127°56'4 7.1
2017-Nov-11 01:31N 51°50' W 127°57'4 7.3
2017-Nov-11 01:00N 51°54' W 127°57'4 7.2
2017-Nov-11 00:30N 51°58' W 127°56'4 7.1
2017-Nov-11 00:00N 52°01' W 127°56'8 5.9
2017-Nov-10 22:40N 52°05' W 128°07'1 6.7
2017-Nov-10 22:30N 52°06' W 128°08'3 6.6
2017-Nov-10 22:00N 52°10' W 128°08'15 5.2
2017-Nov-10 19:12N 52°18' W 128°28'1 6.7
2017-Nov-10 19:00N 52°19' W 128°29'4 6.9
2017-Nov-10 18:29N 52°22' W 128°31'4 7.4
2017-Nov-10 17:58N 52°26' W 128°29'94 6.8
2017-Nov-10 04:06N 53°45' W 129°54'1 7.1
2017-Nov-10 04:00N 53°46' W 129°54'4 7.3
2017-Nov-10 03:30N 53°49' W 129°58'4 7.1
2017-Nov-10 03:00N 53°51' W 130°03'3 7.0
2017-Nov-10 02:30N 53°53' W 130°07'3 6.7
2017-Nov-10 02:00N 53°56' W 130°11'4 6.9
2017-Nov-10 01:30N 53°59' W 130°12'3 6.7
2017-Nov-10 01:00N 54°02' W 130°15'3 6.2
2017-Nov-10 00:30N 54°05' W 130°17'3 6.7
2017-Nov-10 00:00N 54°06' W 130°23'3 5.4
2017-Nov-09 23:30N 54°09' W 130°25'3 6.4
2017-Nov-09 23:00N 54°11' W 130°28'3 6.4
2017-Nov-09 22:30N 54°14' W 130°31'3 6.5
2017-Nov-09 22:00N 54°17' W 130°34'3 6.3
2017-Nov-09 21:30N 54°20' W 130°35'4 7.1
2017-Nov-09 21:00N 54°24' W 130°34'3 6.8
2017-Nov-09 20:30N 54°27' W 130°33'3 6.5
2017-Nov-09 20:00N 54°30' W 130°32'17 1.3
2017-Nov-09 06:28N 54°45' W 130°46'  
Track history (hours):
 
Tides and Currents Weather Stations Pressure Air Temp Water Temp Dewpoint Dewpoint Depression Visibility Wind Speed Wind Dir Waves Ship Positions

Kirsten H

Owner: BOYER TOWING, KETCHIKAN, AK. More information available from US FCC via Universal Licensing System and Coast Guard Vessel Documentation Center.

Last reported at 2017-Nov-19 01:51 UTC. Time now 2017-Nov-22 09:19 UTC.
Position N 54°33' W 130°31'.

Length 22 m; draft 3.7 m.

Type: Tug. MMSI: 366623050.

Date/timePositionNaut miles runAvg speedWind from/ knotsBaromVisibWave heightAir tempDewpointWater temp
2017-Nov-19 01:51N 54°33' W 130°31'2 5.7
2017-Nov-19 01:29N 54°31' W 130°32'3 5.4
2017-Nov-19 00:55N 54°28' W 130°34'2 6.0
2017-Nov-19 00:30N 54°26' W 130°36'3 5.1
2017-Nov-18 23:59N 54°24' W 130°38'2 5.2
2017-Nov-18 23:30N 54°22' W 130°37'3 5.3
2017-Nov-18 23:00N 54°19' W 130°36'3 5.3
2017-Nov-18 22:30N 54°17' W 130°34'3 6.0
2017-Nov-18 22:00N 54°14' W 130°31'3 6.2
2017-Nov-18 21:30N 54°12' W 130°28'3 5.8
2017-Nov-18 21:00N 54°09' W 130°25'3 5.6
2017-Nov-18 20:30N 54°07' W 130°23'3 5.6
2017-Nov-18 20:00N 54°05' W 130°19'3 6.1
2017-Nov-18 19:30N 54°03' W 130°15'4 7.0
2017-Nov-18 19:00N 53°60' W 130°13'4 7.7
2017-Nov-18 18:30N 53°56' W 130°12'3 7.0
2017-Nov-18 18:00N 53°54' W 130°06'4 7.8
2017-Nov-18 17:30N 53°51' W 130°02'4 7.7
2017-Nov-18 16:58N 53°48' W 129°58'158 6.8
2017-Nov-17 17:46N 51°30' W 127°51'11 9.2
2017-Nov-17 16:32N 51°19' W 127°52'3 9.2
2017-Nov-17 16:13N 51°16' W 127°52'2 8.9
2017-Nov-17 16:00N 51°14' W 127°52'5 9.3
2017-Nov-17 15:30N 51°10' W 127°50'4 8.7
2017-Nov-17 15:00N 51°06' W 127°45'5 9.2
2017-Nov-17 14:30N 51°03' W 127°40'4 8.9
2017-Nov-17 14:00N 50°60' W 127°36'5 9.1
2017-Nov-17 13:30N 50°58' W 127°29'5 9.6
2017-Nov-17 13:00N 50°54' W 127°24'5 9.3
2017-Nov-17 12:30N 50°51' W 127°18'5 9.4
2017-Nov-17 12:00N 50°48' W 127°13'5 9.1
2017-Nov-17 11:30N 50°45' W 127°07'10 8.8
2017-Nov-17 10:22N 50°41' W 126°53'47 6.4
2017-Nov-17 02:56N 50°22' W 125°45'1210.9
2017-Nov-17 01:50N 50°20' W 125°26'410.5
2017-Nov-17 01:28N 50°17' W 125°24'510.1
2017-Nov-17 01:00N 50°12' W 125°22'510.0
2017-Nov-17 00:30N 50°07' W 125°20'5 9.9
2017-Nov-17 00:00N 50°04' W 125°15'4 8.5
2017-Nov-16 23:30N 49°60' W 125°12'4 8.9
2017-Nov-16 23:00N 49°57' W 125°07'4 8.9
2017-Nov-16 22:30N 49°54' W 125°02'4 8.6
2017-Nov-16 21:59N 49°51' W 124°56'4 9.2
2017-Nov-16 21:30N 49°49' W 124°51'5 9.1
2017-Nov-16 21:00N 49°46' W 124°45'4 8.9
2017-Nov-16 20:30N 49°43' W 124°40'5 8.8
2017-Nov-16 19:58N 49°39' W 124°35'39 8.9
2017-Nov-16 15:34N 49°19' W 123°44'1 8.8
2017-Nov-16 15:26N 49°18' W 123°43'5 9.7
2017-Nov-16 14:52N 49°14' W 123°37'4 8.8
2017-Nov-16 14:24N 49°11' W 123°32'4 8.5
2017-Nov-16 13:58N 49°09' W 123°28'5 9.2
2017-Nov-16 13:24N 49°05' W 123°22'5 9.5
2017-Nov-16 12:50N 49°01' W 123°16'5 8.8
2017-Nov-16 12:18N 48°58' W 123°11'3 8.6
2017-Nov-16 11:59N 48°57' W 123°08'6 9.2
2017-Nov-16 11:19N 48°52' W 123°01'12 9.5
2017-Nov-16 10:05N 48°46' W 122°46'1 9.8
2017-Nov-16 09:59N 48°45' W 122°45'510.1
2017-Nov-16 09:30N 48°41' W 122°42'510.4
2017-Nov-16 09:00N 48°36' W 122°45'611.0
2017-Nov-16 08:30N 48°30' W 122°44'5 9.6
2017-Nov-16 08:00N 48°25' W 122°44'5 8.5
2017-Nov-16 07:22N 48°20' W 122°45'20 8.2
2017-Nov-16 04:54N 48°01' W 122°37'410.2
2017-Nov-16 04:29N 47°57' W 122°33'5 9.6
2017-Nov-16 04:00N 47°54' W 122°28'5 9.8
2017-Nov-16 03:30N 47°49' W 122°27'5 9.5
2017-Nov-16 03:00N 47°44' W 122°26'5 9.8
2017-Nov-16 02:30N 47°40' W 122°27'4 8.7
2017-Nov-16 02:00N 47°36' W 122°23'1 1.9
2017-Nov-16 01:30N 47°35' W 122°22'2 3.2
2017-Nov-16 01:00N 47°34' W 122°21'2 3.4
2017-Nov-16 00:26N 47°32' W 122°20'0 0.1
2017-Nov-16 00:00N 47°32' W 122°20'0 0.0
2017-Nov-15 00:24N 47°32' W 122°20'1 2.6
2017-Nov-15 00:00N 47°33' W 122°20'4 7.5
2017-Nov-14 23:31N 47°36' W 122°23'4 8.3
2017-Nov-14 23:01N 47°40' W 122°26'2 3.7
2017-Nov-14 22:30N 47°40' W 122°23'0 0.1
2017-Nov-14 22:00N 47°40' W 122°23'0 0.0
2017-Nov-14 21:31N 47°40' W 122°23'0 0.0
2017-Nov-14 21:01N 47°40' W 122°23'0 0.0
2017-Nov-14 20:31N 47°40' W 122°23'0 0.0
2017-Nov-14 20:01N 47°40' W 122°23'0 0.0
2017-Nov-14 19:30N 47°40' W 122°23'0 0.0
2017-Nov-14 19:01N 47°40' W 122°23'0 0.0
2017-Nov-14 18:31N 47°40' W 122°23'0 0.8
2017-Nov-14 18:00N 47°40' W 122°24'2 4.2
2017-Nov-14 17:31N 47°39' W 122°27'510.3
2017-Nov-14 17:01N 47°34' W 122°30'5 8.0
2017-Nov-14 16:21N 47°33' W 122°38'1 0.6
2017-Nov-14 15:01N 47°33' W 122°39'3 4.2
2017-Nov-14 14:25N 47°34' W 122°36'1 3.2
2017-Nov-14 14:00N 47°35' W 122°35'2 4.0
2017-Nov-14 13:31N 47°34' W 122°32'3 5.9
2017-Nov-14 13:01N 47°36' W 122°28'3 6.0
2017-Nov-14 12:31N 47°39' W 122°28'3 5.1
2017-Nov-14 12:01N 47°41' W 122°28'3 6.3
2017-Nov-14 11:31N 47°44' W 122°27'3 6.2
2017-Nov-14 11:01N 47°47' W 122°27'3 6.4
2017-Nov-14 10:30N 47°51' W 122°29'4 7.6
2017-Nov-14 10:00N 47°54' W 122°30'3 6.7
2017-Nov-14 09:31N 47°57' W 122°34'26 7.8
2017-Nov-14 06:09N 48°21' W 122°46'1 8.2
2017-Nov-14 06:00N 48°23' W 122°46'4 8.8
2017-Nov-14 05:30N 48°27' W 122°45'5 9.3
2017-Nov-14 05:01N 48°32' W 122°45'5 9.1
2017-Nov-14 04:30N 48°36' W 122°45'4 7.3
2017-Nov-14 03:59N 48°40' W 122°44'3 6.6
2017-Nov-14 03:30N 48°43' W 122°45'11 7.3
2017-Nov-14 01:56N 48°49' W 122°59'3 6.2
2017-Nov-14 01:29N 48°51' W 123°03'5 5.2
2017-Nov-14 00:35N 48°54' W 123°09'0 4.3
2017-Nov-14 00:30N 48°54' W 123°09'2 3.6
2017-Nov-13 23:57N 48°55' W 123°11'2 3.1
2017-Nov-13 23:21N 48°56' W 123°13'1 3.2
2017-Nov-13 23:00N 48°57' W 123°15'43 1.5
2017-Nov-12 18:32N 49°20' W 124°11'0 6.8
2017-Nov-12 18:29N 49°20' W 124°11'3 6.1
2017-Nov-12 17:58N 49°22' W 124°15'4 5.5
2017-Nov-12 17:16N 49°24' W 124°20'10 5.7
2017-Nov-12 15:29N 49°31' W 124°32'3 6.5
2017-Nov-12 15:00N 49°33' W 124°35'3 6.4
2017-Nov-12 14:30N 49°36' W 124°38'3 6.1
2017-Nov-12 14:00N 49°38' W 124°41'3 5.2
2017-Nov-12 13:30N 49°40' W 124°44'2 4.3
2017-Nov-12 13:01N 49°42' W 124°46'2 4.5
2017-Nov-12 12:30N 49°43' W 124°48'2 4.6
2017-Nov-12 12:00N 49°45' W 124°51'2 4.4
2017-Nov-12 11:31N 49°46' W 124°53'2 3.8
2017-Nov-12 11:01N 49°48' W 124°55'2 3.9
2017-Nov-12 10:30N 49°49' W 124°57'2 3.8
2017-Nov-12 10:01N 49°51' W 124°59'2 3.6
2017-Nov-12 09:29N 49°52' W 125°01'2 3.6
2017-Nov-12 09:00N 49°54' W 125°02'2 3.2
2017-Nov-12 08:30N 49°55' W 125°04'2 3.4
2017-Nov-12 08:00N 49°56' W 125°06'2 3.9
2017-Nov-12 07:27N 49°58' W 125°08'2 4.4
2017-Nov-12 06:59N 49°59' W 125°11'3 5.7
2017-Nov-12 06:30N 50°01' W 125°13'3 5.7
2017-Nov-12 06:00N 50°04' W 125°15'3 6.2
2017-Nov-12 05:31N 50°06' W 125°18'4 8.3
2017-Nov-12 05:01N 50°09' W 125°22'2 4.5
2017-Nov-12 04:31N 50°12' W 125°22'2 3.2
2017-Nov-12 04:00N 50°13' W 125°23'2 4.4
2017-Nov-12 03:30N 50°15' W 125°24'2 3.6
2017-Nov-12 02:58N 50°17' W 125°24'1 2.7
2017-Nov-12 02:30N 50°18' W 125°25'2 3.5
2017-Nov-12 02:00N 50°20' W 125°25'14 4.9
2017-Nov-11 23:10N 50°22' W 125°47'28 4.8
2017-Nov-11 17:20N 50°29' W 126°29'3 6.3
2017-Nov-11 16:56N 50°30' W 126°33'4 6.1
2017-Nov-11 16:12N 50°32' W 126°39'2 6.2
2017-Nov-11 15:56N 50°33' W 126°41'4 7.5
2017-Nov-11 15:25N 50°36' W 126°44'3 6.7
2017-Nov-11 14:58N 50°38' W 126°48'4 7.2
2017-Nov-11 14:23N 50°41' W 126°53'4 6.3
2017-Nov-11 13:44N 50°43' W 126°59'3 6.6
2017-Nov-11 13:19N 50°44' W 127°03'3 6.6
2017-Nov-11 12:54N 50°45' W 127°07'3 6.5
2017-Nov-11 12:29N 50°47' W 127°10'3 6.5
2017-Nov-11 12:00N 50°49' W 127°14'3 6.7
2017-Nov-11 11:30N 50°51' W 127°18'3 6.8
2017-Nov-11 11:00N 50°53' W 127°22'4 7.3
2017-Nov-11 10:30N 50°56' W 127°26'3 6.9
2017-Nov-11 10:00N 50°58' W 127°30'3 6.7
2017-Nov-11 09:30N 50°59' W 127°35'3 6.2
2017-Nov-11 08:59N 51°02' W 127°38'3 6.3
2017-Nov-11 08:30N 51°04' W 127°42'3 5.9
2017-Nov-11 07:59N 51°06' W 127°45'3 6.0
2017-Nov-11 07:30N 51°08' W 127°49'3 6.0
2017-Nov-11 07:00N 51°11' W 127°50'3 6.2
2017-Nov-11 06:29N 51°14' W 127°51'3 6.7
2017-Nov-11 05:58N 51°17' W 127°52'7 7.4
2017-Nov-11 05:00N 51°24' W 127°52'4 7.8
2017-Nov-11 04:28N 51°29' W 127°52'4 7.7
2017-Nov-11 04:01N 51°32' W 127°52'4 7.7
2017-Nov-11 03:30N 51°36' W 127°53'4 7.5
2017-Nov-11 03:00N 51°40' W 127°54'4 7.3
2017-Nov-11 02:30N 51°43' W 127°55'4 7.5
2017-Nov-11 02:00N 51°47' W 127°56'4 7.1
2017-Nov-11 01:31N 51°50' W 127°57'4 7.3
2017-Nov-11 01:00N 51°54' W 127°57'4 7.2
2017-Nov-11 00:30N 51°58' W 127°56'4 7.1
2017-Nov-11 00:00N 52°01' W 127°56'8 5.9
2017-Nov-10 22:40N 52°05' W 128°07'1 6.7
2017-Nov-10 22:30N 52°06' W 128°08'3 6.6
2017-Nov-10 22:00N 52°10' W 128°08'15 5.2
2017-Nov-10 19:12N 52°18' W 128°28'1 6.7
2017-Nov-10 19:00N 52°19' W 128°29'4 6.9
2017-Nov-10 18:29N 52°22' W 128°31'4 7.4
2017-Nov-10 17:58N 52°26' W 128°29'94 6.8
2017-Nov-10 04:06N 53°45' W 129°54'1 7.1
2017-Nov-10 04:00N 53°46' W 129°54'4 7.3
2017-Nov-10 03:30N 53°49' W 129°58'4 7.1
2017-Nov-10 03:00N 53°51' W 130°03'3 7.0
2017-Nov-10 02:30N 53°53' W 130°07'3 6.7
2017-Nov-10 02:00N 53°56' W 130°11'4 6.9
2017-Nov-10 01:30N 53°59' W 130°12'3 6.7
2017-Nov-10 01:00N 54°02' W 130°15'3 6.2
2017-Nov-10 00:30N 54°05' W 130°17'3 6.7
2017-Nov-10 00:00N 54°06' W 130°23'3 5.4
2017-Nov-09 23:30N 54°09' W 130°25'3 6.4
2017-Nov-09 23:00N 54°11' W 130°28'3 6.4
2017-Nov-09 22:30N 54°14' W 130°31'3 6.5
2017-Nov-09 22:00N 54°17' W 130°34'3 6.3
2017-Nov-09 21:30N 54°20' W 130°35'4 7.1
2017-Nov-09 21:00N 54°24' W 130°34'3 6.8
2017-Nov-09 20:30N 54°27' W 130°33'3 6.5
2017-Nov-09 20:00N 54°30' W 130°32'17 1.3
2017-Nov-09 06:28N 54°45' W 130°46'  

Dump ship's entire track history